This is the latest recevied weather packets stored in our database for station/object E20ZNR-1. If no packets are shown the sender has not sent any weather packets the latest 10 day(s).
| Time | Temp. | Humidity | Pressure | Rain* | Wind** | Luminosity | Snow |
|---|---|---|---|---|---|---|---|
| 1777900080 | 28.89° C | 99% | 1005 hPa | - | - | 0 W/m² | - |
| 1777898543 | 28.89° C | 97% | 1004 hPa | - | - | 0 W/m² | - |
| 1777897657 | 28.89° C | 95% | 1004 hPa | - | - | 0 W/m² | - |
| 1777897615 | 28.89° C | 95% | 1004 hPa | - | - | 0 W/m² | - |
| 1777896692 | 28.89° C | 95% | 1004 hPa | - | - | 0 W/m² | - |
| 1777895898 | 28.89° C | 97% | 1004 hPa | - | - | 0 W/m² | - |
| 1777894840 | 29.44° C | 96% | 1004 hPa | - | - | 0 W/m² | - |
| 1777893936 | 29.44° C | 93% | 1004 hPa | - | - | 0 W/m² | - |
| 1777893113 | 29.44° C | 94% | 1004 hPa | - | - | 0 W/m² | - |
| 1777892355 | 28.89° C | 98% | 1004 hPa | - | - | 0 W/m² | - |
| 1777891147 | 28.89° C | 95% | 1003 hPa | - | - | 0 W/m² | - |
| 1777889569 | 29.44° C | 96% | 1003 hPa | - | - | 0 W/m² | - |
| 1777889288 | 29.44° C | 96% | 1003 hPa | - | - | 0 W/m² | - |
| 1777888371 | 28.89° C | 96% | 1003 hPa | - | - | 0 W/m² | - |
| 1777887460 | 29.44° C | 93% | 1003 hPa | - | - | 0 W/m² | - |
| 1777886512 | 30.56° C | 86% | 1002 hPa | - | - | 0 W/m² | - |
| 1777885588 | 30.56° C | 86% | 1003 hPa | - | - | 0 W/m² | - |
| 1777884868 | 31.67° C | 76% | 1003 hPa | - | - | 0 W/m² | - |
| 1777884659 | 31.67° C | 76% | 1003 hPa | - | - | 0 W/m² | - |
| 1777883737 | 30° C | 82% | 1003 hPa | - | - | 0 W/m² | - |
| 1777882556 | 28.33° C | 97% | 1004 hPa | - | - | 0 W/m² | - |
| 1777881589 | 30.56° C | 75% | 1004 hPa | - | - | 0 W/m² | - |
| 1777880664 | 33.89° C | 56% | 1004 hPa | - | - | 0 W/m² | - |
| 1777879739 | 36.11° C | 55% | 1004 hPa | - | - | 0 W/m² | - |
| 1777878813 | 35.56° C | 55% | 1004 hPa | - | - | 0 W/m² | - |
* Rain since midnight (hover to see other rain measurements)
** Current wind speed in m/s (hover to see current wind gust speed)